Time;durP1;ratioP1;P1;durP2;ratioP2;P2;SDS_P1;SDS_P2;PMS_P1;PMS_P2;Temp;Humidity;BMP_temperature;BMP_pressure;BME280_temperature;BME280_humidity;BME280_pressure;Samples;Min_cycle;Max_cycle;Signal;HPM_P1;HPM_P2
2022/10/17 00:08:56;;;;;;;55.90;28.30;;;;;;;12.45;100.00;101187.45;640408;1312;139517;-79
2022/10/17 00:24:00;;;;;;;39.90;21.90;;;;;;;12.26;100.00;101205.05;640767;1312;140508;-79
2022/10/17 00:39:03;;;;;;;57.00;25.20;;;;;;;12.24;100.00;101200.33;640245;1313;139573;-79
2022/10/17 00:54:08;;;;;;;52.90;24.30;;;;;;;12.19;100.00;101204.02;638514;1311;1084818;-80
2022/10/17 01:09:12;;;;;;;84.50;37.90;;;;;;;11.84;100.00;101218.73;639699;1313;140376;-79
2022/10/17 01:24:46;;;;;;;65.10;24.50;;;;;;;11.84;100.00;101215.04;640223;1308;140416;-79
2022/10/17 01:40:09;;;;;;;56.90;26.20;;;;;;;11.72;100.00;101206.52;640113;1305;142082;-80
2022/10/17 01:55:19;;;;;;;46.40;22.30;;;;;;;11.51;100.00;101224.21;639876;1311;141051;-80
2022/10/17 02:10:34;;;;;;;35.20;19.20;;;;;;;11.46;100.00;101257.89;640440;1305;140471;-80
2022/10/17 02:25:47;;;;;;;48.60;22.90;;;;;;;11.75;100.00;101260.42;639669;1312;140379;-80
2022/10/17 02:40:51;;;;;;;91.80;35.50;;;;;;;11.65;100.00;101274.83;640074;1311;139525;-80
2022/10/17 02:56:04;;;;;;;97.30;36.60;;;;;;;11.32;100.00;101284.50;639879;1312;140063;-80
2022/10/17 03:11:07;;;;;;;100.50;40.40;;;;;;;11.50;100.00;101308.01;642274;1313;141347;-80
2022/10/17 03:26:10;;;;;;;89.60;35.70;;;;;;;11.56;100.00;101315.65;639896;1305;140435;-80
2022/10/17 03:41:14;;;;;;;68.30;27.50;;;;;;;11.59;100.00;101326.27;639648;1306;140195;-80
2022/10/17 03:56:23;;;;;;;89.80;39.70;;;;;;;11.33;100.00;101325.26;639843;1311;140594;-79
2022/10/17 04:11:41;;;;;;;109.70;48.80;;;;;;;11.10;100.00;101344.75;640046;1281;139596;-80
2022/10/17 04:26:44;;;;;;;72.00;34.30;;;;;;;10.99;100.00;101349.44;639701;1305;140150;-79
2022/10/17 04:41:48;;;;;;;68.10;34.00;;;;;;;11.04;100.00;101361.21;639905;1298;140584;-80
2022/10/17 04:56:52;;;;;;;59.50;29.20;;;;;;;11.15;100.00;101346.73;639635;1295;140351;-80
2022/10/17 05:11:56;;;;;;;69.90;34.40;;;;;;;11.11;100.00;101358.77;641020;1297;140104;-78
2022/10/17 05:27:00;;;;;;;170.00;84.40;;;;;;;10.94;100.00;101366.92;640833;1289;139448;-78
2022/10/17 05:42:03;;;;;;;100.30;49.70;;;;;;;10.92;100.00;101391.27;640325;1310;140425;-78
2022/10/17 05:57:08;;;;;;;90.80;45.60;;;;;;;11.06;100.00;101398.62;640028;1308;139681;-80
2022/10/17 06:12:11;;;;;;;136.00;56.00;;;;;;;11.23;100.00;101410.73;639723;1297;139363;-80
2022/10/17 06:27:16;;;;;;;112.80;54.60;;;;;;;11.46;100.00;101432.51;640384;1303;140246;-81
2022/10/17 06:42:20;;;;;;;76.20;38.00;;;;;;;11.89;100.00;101423.73;639683;1303;139610;-80
2022/10/17 06:57:44;;;;;;;109.10;57.00;;;;;;;13.14;100.00;101427.77;640171;1295;140024;-79
2022/10/17 07:13:07;;;;;;;143.10;74.70;;;;;;;14.15;100.00;101458.54;642030;1281;140626;-80
2022/10/17 07:28:13;;;;;;;99.40;56.40;;;;;;;15.23;100.00;101478.80;640599;1293;140113;-80
2022/10/17 07:43:17;;;;;;;86.40;51.50;;;;;;;15.54;100.00;101482.39;642306;1282;139935;-80
2022/10/17 07:58:20;;;;;;;76.50;46.90;;;;;;;16.68;100.00;101491.90;640994;1311;140252;-81
2022/10/17 08:13:24;;;;;;;57.90;35.00;;;;;;;17.33;100.00;101486.55;644154;1304;143512;-80
2022/10/17 08:28:28;;;;;;;17.90;13.90;;;;;;;18.98;100.00;101486.46;639901;1305;141174;-80
2022/10/17 08:44:16;;;;;;;24.30;14.00;;;;;;;19.21;100.00;101478.80;642089;1312;139969;-80
2022/10/17 08:59:25;;;;;;;16.80;12.90;;;;;;;19.95;100.00;101469.06;638551;1295;139639;-80
2022/10/17 09:14:43;;;;;;;14.80;11.80;;;;;;;20.99;100.00;101472.18;639758;1295;139951;-79
2022/10/17 09:29:49;;;;;;;14.20;11.60;;;;;;;21.91;100.00;101456.67;645796;1291;140976;-80
2022/10/17 09:45:24;;;;;;;14.70;11.40;;;;;;;22.66;98.60;101450.30;640924;1293;140655;-81
2022/10/17 10:00:29;;;;;;;17.40;14.10;;;;;;;23.21;94.60;101441.30;640623;1294;140141;-81
2022/10/17 10:15:37;;;;;;;15.80;13.80;;;;;;;23.33;90.59;101429.98;641054;1297;139916;-81
2022/10/17 10:30:46;;;;;;;;;;;;;;;23.78;89.93;101421.85;640186;1294;140395;-80
2022/10/17 10:45:50;;;;;;;21.20;18.90;;;;;;;23.93;87.27;101413.98;641067;1294;127388;-81
2022/10/17 11:09:56;;;;;;;21.70;19.30;;;;;;;24.93;85.67;101395.52;624671;1328;921036;-82
2022/10/17 11:25:07;;;;;;;16.20;14.00;;;;;;;24.98;84.12;101388.88;634587;1308;139085;-82
2022/10/17 11:40:17;;;;;;;15.40;12.50;;;;;;;25.09;83.11;101374.18;634423;1301;140835;-83
2022/10/17 11:55:28;;;;;;;18.60;14.90;;;;;;;25.69;81.25;101360.33;637826;1319;139816;-82
2022/10/17 12:10:41;;;;;;;22.40;15.20;;;;;;;25.53;79.33;101353.69;641385;1319;139100;-82
2022/10/17 12:25:54;;;;;;;22.10;15.40;;;;;;;25.74;79.72;101339.33;637524;1308;138718;-82
2022/10/17 12:41:06;;;;;;;17.70;13.30;;;;;;;26.02;78.27;101331.60;637607;1301;140536;-82
2022/10/17 12:56:44;;;;;;;25.70;14.80;;;;;;;26.34;75.19;101325.89;639585;1304;139463;-81
2022/10/17 13:11:49;;;;;;;21.80;14.90;;;;;;;26.11;76.09;101324.92;636651;1316;138522;-80
2022/10/17 13:26:53;;;;;;;20.90;13.50;;;;;;;28.94;72.20;101317.22;637300;1311;139794;-80
2022/10/17 13:41:57;;;;;;;18.50;13.20;;;;;;;29.80;65.09;101307.40;637131;1309;140504;-80
2022/10/17 13:57:03;;;;;;;16.60;12.90;;;;;;;31.19;62.50;101288.54;641052;1301;139797;-81
2022/10/17 14:12:15;;;;;;;27.40;18.40;;;;;;;30.76;60.06;101277.67;639221;1303;139655;-80
2022/10/17 14:27:33;;;;;;;21.30;15.10;;;;;;;30.12;61.51;101261.58;638374;1297;139284;-80
2022/10/17 14:42:39;;;;;;;24.00;18.30;;;;;;;26.31;68.14;101249.66;638144;1294;138999;-80
2022/10/17 14:57:44;;;;;;;22.20;16.50;;;;;;;25.03;73.84;101234.34;637804;1301;138666;-81
2022/10/17 15:12:48;;;;;;;47.30;26.00;;;;;;;24.20;77.19;101237.16;637045;1303;139911;-80
2022/10/17 15:28:10;;;;;;;25.80;18.60;;;;;;;22.96;81.60;101229.77;636732;1309;139763;-80
2022/10/17 15:43:14;;;;;;;30.00;21.70;;;;;;;22.09;85.09;101220.60;636693;1316;141382;-80
2022/10/17 15:58:21;;;;;;;39.00;24.90;;;;;;;21.49;88.53;101224.23;636315;1311;140078;-80
2022/10/17 16:13:24;;;;;;;39.50;28.70;;;;;;;21.01;91.92;101213.52;637273;1303;139183;-78
2022/10/17 16:28:28;;;;;;;38.30;28.30;;;;;;;20.67;95.24;101220.52;637671;1304;139871;-79
2022/10/17 16:43:35;;;;;;;41.60;27.10;;;;;;;20.37;97.75;101216.73;637682;1301;139558;-80
2022/10/17 16:58:39;;;;;;;36.50;26.20;;;;;;;20.19;99.73;101215.19;638088;1310;138893;-79
2022/10/17 17:13:43;;;;;;;47.40;31.10;;;;;;;20.04;100.00;101212.64;637954;1302;139922;-79
2022/10/17 17:28:48;;;;;;;40.60;28.20;;;;;;;19.89;100.00;101196.21;637903;1301;139669;-80
2022/10/17 17:43:52;;;;;;;41.80;28.30;;;;;;;19.78;100.00;101201.64;636500;1308;140967;-79
2022/10/17 17:58:58;;;;;;;40.00;25.80;;;;;;;19.72;100.00;101190.15;637339;1300;140441;-79
2022/10/17 18:14:06;;;;;;;41.80;27.40;;;;;;;19.66;100.00;101184.55;637713;1316;140276;-79
2022/10/17 18:29:11;;;;;;;43.70;26.80;;;;;;;19.56;100.00;101172.19;637193;1310;139583;-82
2022/10/17 18:44:15;;;;;;;42.90;26.60;;;;;;;19.51;100.00;101162.36;639245;1302;140142;-80
2022/10/17 18:59:22;;;;;;;37.20;27.10;;;;;;;19.38;100.00;101161.83;638190;1302;140233;-79
2022/10/17 19:14:29;;;;;;;38.90;25.00;;;;;;;19.22;100.00;101156.13;638343;1306;139186;-79
2022/10/17 19:29:33;;;;;;;41.00;25.20;;;;;;;18.99;100.00;101142.91;638956;1306;139480;-79
2022/10/17 19:44:36;;;;;;;35.60;23.30;;;;;;;18.78;100.00;101137.38;642331;1305;139851;-81
2022/10/17 19:59:39;;;;;;;41.70;23.80;;;;;;;18.57;100.00;101136.47;644250;1297;140102;-80
2022/10/17 20:14:43;;;;;;;37.70;23.00;;;;;;;18.37;100.00;101138.80;641210;1308;139436;-80
2022/10/17 20:29:46;;;;;;;38.30;21.90;;;;;;;18.30;100.00;101131.34;638655;1314;139779;-79
2022/10/17 20:44:49;;;;;;;33.50;21.80;;;;;;;18.22;100.00;101133.61;644435;1315;139311;-80
2022/10/17 20:59:52;;;;;;;35.30;21.30;;;;;;;18.13;100.00;101119.27;642672;1304;139884;-80
2022/10/17 21:14:56;;;;;;;36.20;20.40;;;;;;;18.14;100.00;101116.80;644356;1313;140014;-80
2022/10/17 21:29:59;;;;;;;36.60;22.20;;;;;;;18.27;100.00;101117.52;637334;1304;140453;-80
2022/10/17 21:45:03;;;;;;;35.30;20.70;;;;;;;18.28;100.00;101115.13;638589;1310;139997;-80
2022/10/17 22:00:17;;;;;;;42.10;24.50;;;;;;;18.16;100.00;101114.45;636998;1298;140172;-79
2022/10/17 22:15:21;;;;;;;47.80;26.60;;;;;;;18.08;100.00;101111.08;637203;1314;139825;-79
2022/10/17 22:30:24;;;;;;;36.20;22.40;;;;;;;18.02;100.00;101098.77;637714;1300;140167;-79
2022/10/17 22:45:27;;;;;;;42.20;25.70;;;;;;;17.94;100.00;101100.52;637122;1316;139195;-78
2022/10/17 23:00:30;;;;;;;41.00;24.30;;;;;;;17.83;100.00;101096.20;638202;1313;139865;-79
2022/10/17 23:15:34;;;;;;;44.30;23.60;;;;;;;17.68;100.00;101088.55;637419;1313;1092437;-79
2022/10/17 23:30:38;;;;;;;45.30;26.00;;;;;;;17.48;100.00;101078.05;638157;1300;139220;-80
2022/10/17 23:45:41;;;;;;;37.50;22.90;;;;;;;17.28;100.00;101077.33;637912;1310;139079;-81
